createdAt,value
2022-08-21T00:02:03.949Z,2.97
2022-08-21T00:04:31.478Z,2.83
2022-08-21T00:07:00.744Z,3.03
2022-08-21T00:09:28.864Z,2.97
2022-08-21T00:11:55.726Z,3.20
2022-08-21T00:14:22.720Z,3.03
2022-08-21T00:16:49.594Z,3.10
2022-08-21T00:19:16.705Z,2.60
2022-08-21T00:21:44.302Z,3.00
2022-08-21T00:24:12.369Z,2.93
2022-08-21T00:26:39.901Z,3.03
2022-08-21T00:29:06.717Z,2.80
2022-08-21T00:31:33.683Z,2.43
2022-08-21T00:34:01.383Z,2.80
2022-08-21T00:36:29.722Z,2.90
2022-08-21T00:38:57.699Z,2.77
2022-08-21T00:41:38.437Z,2.90
2022-08-21T00:44:08.922Z,3.20
2022-08-21T00:46:37.480Z,3.30
2022-08-21T00:49:06.846Z,3.10
2022-08-21T00:51:40.945Z,2.90
2022-08-21T00:54:18.849Z,2.97
2022-08-21T00:56:55.252Z,3.20
2022-08-21T00:59:23.573Z,3.10
2022-08-21T01:01:51.624Z,2.67
2022-08-21T01:04:19.284Z,2.97
2022-08-21T01:06:46.589Z,3.30
2022-08-21T01:09:14.771Z,3.10
2022-08-21T01:11:43.963Z,3.17
2022-08-21T01:14:13.457Z,2.93
2022-08-21T01:16:48.697Z,3.33
2022-08-21T01:19:17.906Z,3.17
2022-08-21T01:21:44.822Z,3.30
2022-08-21T01:24:12.560Z,3.20
2022-08-21T01:26:40.846Z,2.97
2022-08-21T01:29:21.470Z,2.77
2022-08-21T01:31:48.345Z,3.23
2022-08-21T01:34:16.876Z,2.90
2022-08-21T01:36:46.252Z,3.27
2022-08-21T01:39:13.540Z,2.40
2022-08-21T01:41:40.398Z,2.90
2022-08-21T01:44:07.462Z,2.73
2022-08-21T01:46:34.565Z,2.27
2022-08-21T01:49:01.512Z,2.93
2022-08-21T01:51:28.385Z,2.30
2022-08-21T01:53:55.280Z,2.83
2022-08-21T01:56:22.228Z,2.63
2022-08-21T01:58:49.379Z,2.77
2022-08-21T02:01:16.830Z,2.60
2022-08-21T02:03:43.781Z,2.73
2022-08-21T02:06:18.287Z,2.70
2022-08-21T02:08:46.463Z,2.70
2022-08-21T02:11:13.543Z,2.97
2022-08-21T02:13:41.020Z,3.10
2022-08-21T02:16:08.807Z,3.00
2022-08-21T02:18:36.386Z,3.13
2022-08-21T02:21:05.479Z,3.10
2022-08-21T02:23:33.577Z,3.10
2022-08-21T02:26:02.888Z,3.17
2022-08-21T02:28:31.252Z,3.63
2022-08-21T02:30:58.849Z,4.00
2022-08-21T02:33:26.837Z,3.20
2022-08-21T02:35:54.992Z,3.17
2022-08-21T02:38:27.126Z,3.40
2022-08-21T02:40:55.420Z,3.47
2022-08-21T02:43:25.477Z,3.50
2022-08-21T02:45:54.249Z,3.27
2022-08-21T02:48:29.026Z,3.00
2022-08-21T02:51:13.668Z,3.33
2022-08-21T02:53:42.077Z,3.20
2022-08-21T02:56:14.004Z,3.20
2022-08-21T02:58:51.897Z,3.33
2022-08-21T03:01:20.382Z,2.67
2022-08-21T03:03:51.813Z,2.83
2022-08-21T03:06:21.430Z,3.07
2022-08-21T03:08:49.011Z,3.00
2022-08-21T03:11:16.655Z,2.67
2022-08-21T03:13:44.316Z,3.13
2022-08-21T03:16:11.334Z,3.00
2022-08-21T03:18:38.809Z,3.17
2022-08-21T03:21:07.607Z,3.57
2022-08-21T03:23:34.567Z,3.50
2022-08-21T03:26:01.675Z,3.70
2022-08-21T03:28:29.141Z,3.60
2022-08-21T03:30:56.306Z,3.90
2022-08-21T03:33:23.831Z,3.87
2022-08-21T03:36:05.689Z,3.50
2022-08-21T03:38:35.399Z,3.43
2022-08-21T03:41:03.252Z,3.93
2022-08-21T03:43:31.077Z,3.97
2022-08-21T03:46:02.693Z,4.10
2022-08-21T03:48:29.943Z,3.80
2022-08-21T03:50:57.525Z,3.80
2022-08-21T03:53:24.569Z,3.93
2022-08-21T03:55:53.502Z,4.13
2022-08-21T03:58:24.047Z,3.90
2022-08-21T04:00:54.903Z,3.90
2022-08-21T04:03:22.460Z,3.43
2022-08-21T04:05:49.791Z,3.93
2022-08-21T04:08:19.647Z,3.80
2022-08-21T04:10:52.316Z,3.50
2022-08-21T04:13:20.218Z,3.53
2022-08-21T04:15:47.477Z,3.20
2022-08-21T04:18:14.368Z,3.70
2022-08-21T04:20:45.353Z,3.10
2022-08-21T04:23:23.750Z,2.90
2022-08-21T04:25:53.062Z,2.80
2022-08-21T04:28:20.293Z,2.70
2022-08-21T04:30:47.430Z,3.10
2022-08-21T04:33:14.410Z,3.10
2022-08-21T04:35:42.996Z,3.50
2022-08-21T04:38:10.168Z,3.00
2022-08-21T04:40:37.361Z,3.20
2022-08-21T04:43:10.975Z,2.97
2022-08-21T04:45:45.340Z,2.93
2022-08-21T04:48:14.484Z,2.90
2022-08-21T04:51:08.898Z,3.00
2022-08-21T04:53:43.089Z,2.97
2022-08-21T04:56:16.747Z,3.00
2022-08-21T04:58:44.075Z,3.37
2022-08-21T05:01:18.503Z,2.77
2022-08-21T05:03:47.699Z,3.10
2022-08-21T05:06:17.856Z,3.10
2022-08-21T05:08:47.121Z,3.20
2022-08-21T05:11:14.164Z,3.03
2022-08-21T05:13:42.293Z,3.00
2022-08-21T05:16:09.399Z,3.00
2022-08-21T05:18:36.295Z,3.17
2022-08-21T05:21:04.058Z,3.03
2022-08-21T05:23:31.997Z,3.37
2022-08-21T05:25:59.263Z,3.10
2022-08-21T05:28:27.130Z,3.07
2022-08-21T05:30:54.192Z,3.77
2022-08-21T05:33:21.063Z,3.60
2022-08-21T05:35:56.612Z,3.80
2022-08-21T05:38:29.193Z,3.97
2022-08-21T05:40:56.287Z,3.93
2022-08-21T05:43:23.277Z,4.20
2022-08-21T05:45:50.181Z,4.00
2022-08-21T05:48:24.619Z,4.10
2022-08-21T05:50:53.123Z,4.10
2022-08-21T05:53:23.275Z,3.93
2022-08-21T05:55:50.643Z,4.60
2022-08-21T05:58:21.967Z,3.77
2022-08-21T06:00:51.292Z,3.63
2022-08-21T06:03:22.529Z,3.87
2022-08-21T06:05:49.964Z,3.30
2022-08-21T06:08:18.511Z,3.40
2022-08-21T06:10:47.417Z,3.70
2022-08-21T06:13:17.742Z,3.50
2022-08-21T06:15:44.689Z,3.87
2022-08-21T06:18:12.388Z,3.27
2022-08-21T06:20:41.334Z,3.30
2022-08-21T06:23:08.501Z,2.83
2022-08-21T06:25:36.115Z,3.17
2022-08-21T06:28:10.179Z,3.50
2022-08-21T06:30:39.725Z,3.10
2022-08-21T06:33:07.911Z,2.93
2022-08-21T06:35:35.789Z,3.10
2022-08-21T06:38:03.161Z,3.07
2022-08-21T06:40:34.883Z,2.93
2022-08-21T06:43:15.471Z,3.10
2022-08-21T06:45:43.081Z,2.90
2022-08-21T06:48:09.983Z,3.00
2022-08-21T06:50:38.440Z,3.03
2022-08-21T06:53:19.668Z,3.13
2022-08-21T06:55:47.989Z,3.50
2022-08-21T06:58:15.170Z,2.90
2022-08-21T07:00:47.310Z,3.03
2022-08-21T07:03:33.133Z,3.40
2022-08-21T07:06:00.123Z,2.67
2022-08-21T07:08:28.692Z,3.40
2022-08-21T07:10:59.547Z,2.70
2022-08-21T07:13:27.505Z,3.20
2022-08-21T07:15:54.436Z,2.97
2022-08-21T07:18:21.378Z,3.27
2022-08-21T07:20:48.840Z,3.50
2022-08-21T07:23:30.627Z,3.20
2022-08-21T07:25:57.887Z,3.23
2022-08-21T07:28:24.745Z,3.57
2022-08-21T07:30:54.894Z,3.43
2022-08-21T07:33:22.044Z,3.53
2022-08-21T07:35:48.946Z,3.63
2022-08-21T07:38:15.789Z,3.93
2022-08-21T07:40:42.820Z,3.30
2022-08-21T07:43:09.680Z,3.40
2022-08-21T07:45:36.509Z,3.30
2022-08-21T07:48:04.028Z,3.43
2022-08-21T07:50:30.970Z,3.37
2022-08-21T07:52:57.980Z,3.60
2022-08-21T07:55:25.228Z,3.27
2022-08-21T07:57:52.068Z,3.27
2022-08-21T08:00:25.313Z,3.77
2022-08-21T08:02:54.053Z,3.50
2022-08-21T08:05:28.644Z,3.83
2022-08-21T08:07:56.232Z,3.40
2022-08-21T08:10:24.217Z,3.50
2022-08-21T08:12:52.305Z,4.50
2022-08-21T08:15:24.897Z,4.00
2022-08-21T08:17:52.357Z,3.47
2022-08-21T08:20:21.014Z,3.93
2022-08-21T08:22:50.199Z,4.03
2022-08-21T08:25:18.631Z,3.90
2022-08-21T08:27:45.484Z,4.00
2022-08-21T08:30:15.432Z,3.63
2022-08-21T08:32:42.713Z,3.43
2022-08-21T08:35:10.195Z,3.40
2022-08-21T08:37:41.872Z,3.40
2022-08-21T08:40:38.853Z,4.20
2022-08-21T08:43:10.632Z,3.77
2022-08-21T08:45:47.875Z,4.17
2022-08-21T08:48:32.830Z,4.00
2022-08-21T08:51:02.133Z,4.30
2022-08-21T08:53:46.005Z,4.40
2022-08-21T08:56:13.003Z,4.20
2022-08-21T08:58:44.461Z,4.50
2022-08-21T09:01:20.169Z,4.10
2022-08-21T09:03:51.300Z,5.10
2022-08-21T09:06:34.334Z,3.90
2022-08-21T09:09:16.893Z,3.97
2022-08-21T09:11:58.097Z,4.47
2022-08-21T09:14:41.995Z,5.40
2022-08-21T09:17:37.491Z,3.80
2022-08-21T09:20:18.366Z,4.30
2022-08-21T09:23:13.010Z,4.70
2022-08-21T09:25:51.915Z,4.20
2022-08-21T09:28:18.744Z,3.87
2022-08-21T09:30:45.600Z,5.13
2022-08-21T09:33:16.893Z,4.30
2022-08-21T09:36:10.250Z,4.30
2022-08-21T09:38:38.841Z,3.73
2022-08-21T09:41:11.109Z,3.83
2022-08-21T09:43:39.316Z,3.93
2022-08-21T09:46:28.593Z,3.63
2022-08-21T09:49:00.211Z,3.73
2022-08-21T09:51:34.940Z,3.07
2022-08-21T09:54:07.812Z,3.63
2022-08-21T09:57:25.815Z,3.47
2022-08-21T09:59:52.705Z,3.20
2022-08-21T10:02:33.545Z,3.50
2022-08-21T10:05:08.878Z,3.60
2022-08-21T10:07:39.115Z,3.27
2022-08-21T10:10:20.352Z,3.30
2022-08-21T10:13:25.922Z,3.97
2022-08-21T10:16:10.620Z,3.37
2022-08-21T10:19:12.589Z,3.43
2022-08-21T10:22:11.955Z,2.97
2022-08-21T10:24:59.217Z,2.83
2022-08-21T10:27:38.485Z,3.00
2022-08-21T10:30:07.393Z,3.23
2022-08-21T10:33:15.114Z,3.80
2022-08-21T10:35:57.162Z,3.43
2022-08-21T10:38:58.641Z,3.40
2022-08-21T10:42:02.854Z,3.80
2022-08-21T10:44:47.259Z,3.67
2022-08-21T10:47:34.102Z,3.73
2022-08-21T10:50:40.653Z,3.43
2022-08-21T10:53:28.575Z,3.20
2022-08-21T10:56:11.405Z,3.17
2022-08-21T10:58:51.671Z,3.17
2022-08-21T11:01:33.416Z,3.07
2022-08-21T11:04:25.931Z,3.63
2022-08-21T11:07:18.297Z,3.40
2022-08-21T11:09:49.514Z,2.90
2022-08-21T11:12:54.822Z,3.23
2022-08-21T11:15:46.071Z,3.20
2022-08-21T11:18:30.925Z,3.07
2022-08-21T11:21:34.496Z,2.93
2022-08-21T11:24:40.236Z,3.40
2022-08-21T11:27:19.484Z,2.90
2022-08-21T11:29:53.783Z,3.10
2022-08-21T11:32:43.447Z,2.70
2022-08-21T11:35:44.503Z,3.10
2022-08-21T11:38:35.981Z,2.60
2022-08-21T11:41:14.848Z,2.70
2022-08-21T11:43:49.390Z,2.80
2022-08-21T11:46:26.903Z,3.33
2022-08-21T11:49:27.754Z,3.10
2022-08-21T11:52:24.840Z,2.78
2022-08-21T11:55:04.798Z,2.80
2022-08-21T11:57:52.484Z,2.90
2022-08-21T12:00:55.458Z,2.78
2022-08-21T12:03:35.864Z,2.80
2022-08-21T12:06:08.840Z,2.90
2022-08-21T12:08:43.437Z,2.47
2022-08-21T12:11:18.522Z,2.58
2022-08-21T12:14:05.901Z,2.75
2022-08-21T12:16:42.727Z,2.85
2022-08-21T12:19:28.940Z,2.47
2022-08-21T12:21:58.764Z,2.40
2022-08-21T12:24:28.285Z,2.33
2022-08-21T12:27:22.247Z,2.20
2022-08-21T12:29:53.110Z,2.05
2022-08-21T12:32:44.103Z,2.50
2022-08-21T12:35:18.586Z,2.65
2022-08-21T12:38:16.727Z,2.70
2022-08-21T12:40:51.656Z,2.35
2022-08-21T12:43:43.284Z,2.30
2022-08-21T12:46:23.839Z,2.35
2022-08-21T12:49:01.905Z,2.17
2022-08-21T12:51:51.568Z,2.63
2022-08-21T12:54:37.811Z,2.20
2022-08-21T12:57:08.210Z,2.40
2022-08-21T12:59:40.243Z,2.42
2022-08-21T13:02:20.770Z,2.28
2022-08-21T13:04:49.564Z,2.72
2022-08-21T13:07:33.147Z,2.22
2022-08-21T13:10:17.996Z,2.35
2022-08-21T13:12:46.049Z,2.60
2022-08-21T13:15:14.669Z,2.15
2022-08-21T13:17:49.659Z,2.10
2022-08-21T13:20:24.437Z,2.60
2022-08-21T13:22:51.921Z,2.40
2022-08-21T13:25:25.862Z,2.40
2022-08-21T13:28:23.105Z,2.42
2022-08-21T13:30:53.373Z,2.45
2022-08-21T13:33:25.175Z,2.30
2022-08-21T13:36:25.725Z,2.33
2022-08-21T13:38:55.222Z,2.65
2022-08-21T13:41:28.909Z,2.13
2022-08-21T13:44:18.485Z,2.28
2022-08-21T13:46:49.221Z,2.35
2022-08-21T13:49:23.643Z,2.30
2022-08-21T13:51:53.006Z,2.28
2022-08-21T13:54:25.038Z,2.50
2022-08-21T13:56:51.963Z,2.50
2022-08-21T13:59:28.937Z,2.10
2022-08-21T14:02:21.781Z,2.45
2022-08-21T14:05:03.881Z,2.28
2022-08-21T14:07:41.561Z,2.20
2022-08-21T14:10:20.158Z,2.10
2022-08-21T14:12:59.758Z,2.33
2022-08-21T14:15:31.253Z,2.75
2022-08-21T14:18:17.717Z,2.78
2022-08-21T14:20:45.900Z,2.45
2022-08-21T14:23:14.627Z,2.20
2022-08-21T14:25:45.740Z,2.70
2022-08-21T14:28:21.852Z,2.50
2022-08-21T14:30:55.933Z,2.53
2022-08-21T14:33:32.443Z,2.78
2022-08-21T14:35:59.913Z,2.38
2022-08-21T14:38:28.559Z,2.40
2022-08-21T14:41:05.702Z,2.30
2022-08-21T14:43:33.023Z,2.25
2022-08-21T14:46:01.452Z,2.15
2022-08-21T14:48:28.515Z,2.53
2022-08-21T14:51:00.157Z,2.30
2022-08-21T14:53:27.535Z,2.65
2022-08-21T14:56:10.968Z,2.22
2022-08-21T14:58:43.246Z,2.35
2022-08-21T15:01:12.855Z,2.30
2022-08-21T15:03:40.476Z,2.47
2022-08-21T15:06:08.619Z,2.60
2022-08-21T15:08:36.000Z,2.38
2022-08-21T15:11:15.335Z,2.50
2022-08-21T15:13:44.694Z,2.17
2022-08-21T15:16:13.178Z,2.22
2022-08-21T15:18:41.311Z,2.53
2022-08-21T15:21:08.701Z,2.33
2022-08-21T15:23:35.849Z,2.47
2022-08-21T15:26:07.077Z,2.63
2022-08-21T15:28:35.687Z,2.88
2022-08-21T15:31:03.818Z,2.28
2022-08-21T15:33:31.399Z,2.75
2022-08-21T15:35:58.413Z,2.50
2022-08-21T15:38:25.881Z,2.50
2022-08-21T15:40:53.710Z,2.50
2022-08-21T15:43:29.962Z,2.50
2022-08-21T15:46:01.432Z,2.83
2022-08-21T15:48:29.458Z,2.80
2022-08-21T15:50:56.348Z,2.42
2022-08-21T15:53:23.473Z,2.65
2022-08-21T15:55:50.433Z,2.97
2022-08-21T15:58:20.246Z,3.10
2022-08-21T16:00:47.942Z,3.03
2022-08-21T16:03:17.704Z,3.10
2022-08-21T16:05:49.526Z,2.65
2022-08-21T16:08:16.827Z,3.20
2022-08-21T16:10:43.825Z,2.65
2022-08-21T16:13:36.232Z,2.97
2022-08-21T16:16:03.455Z,3.00
2022-08-21T16:18:30.324Z,2.90
2022-08-21T16:20:57.180Z,2.70
2022-08-21T16:23:24.301Z,2.73
2022-08-21T16:25:51.464Z,2.63
2022-08-21T16:28:20.981Z,2.57
2022-08-21T16:30:50.453Z,2.70
2022-08-21T16:33:33.366Z,2.50
2022-08-21T16:36:00.694Z,2.77
2022-08-21T16:38:29.153Z,2.80
2022-08-21T16:40:56.532Z,2.83
2022-08-21T16:43:28.841Z,2.77
2022-08-21T16:45:58.032Z,3.00
2022-08-21T16:48:26.104Z,2.90
2022-08-21T16:50:52.963Z,2.90
2022-08-21T16:53:19.798Z,3.10
2022-08-21T16:55:46.744Z,2.93
2022-08-21T16:58:38.078Z,2.78
2022-08-21T17:01:10.507Z,2.93
2022-08-21T17:03:42.149Z,3.00
2022-08-21T17:06:11.152Z,2.97
2022-08-21T17:08:38.429Z,3.00
2022-08-21T17:11:10.046Z,3.07
2022-08-21T17:13:37.711Z,3.10
2022-08-21T17:16:05.196Z,3.07
2022-08-21T17:18:32.203Z,2.83
2022-08-21T17:20:59.230Z,2.80
2022-08-21T17:23:26.051Z,3.00
2022-08-21T17:25:55.475Z,3.10
2022-08-21T17:28:33.486Z,3.03
2022-08-21T17:31:02.674Z,3.10
2022-08-21T17:33:47.450Z,3.23
2022-08-21T17:36:15.606Z,3.10
2022-08-21T17:38:42.489Z,3.20
2022-08-21T17:41:10.156Z,3.00
2022-08-21T17:43:38.473Z,3.07
2022-08-21T17:46:06.072Z,3.13
2022-08-21T17:48:33.141Z,3.13
2022-08-21T17:51:01.164Z,3.00
2022-08-21T17:53:28.330Z,3.67
2022-08-21T17:55:56.055Z,3.23
2022-08-21T17:58:23.118Z,3.37
2022-08-21T18:00:50.062Z,3.80
2022-08-21T18:03:21.776Z,3.37
2022-08-21T18:05:51.320Z,3.67
2022-08-21T18:08:18.472Z,3.67
2022-08-21T18:10:49.091Z,3.90
2022-08-21T18:13:31.714Z,3.77
2022-08-21T18:16:00.243Z,3.87
2022-08-21T18:18:33.733Z,3.77
2022-08-21T18:21:00.582Z,3.67
2022-08-21T18:23:44.027Z,3.60
2022-08-21T18:26:15.419Z,3.80
2022-08-21T18:28:44.152Z,3.60
2022-08-21T18:31:12.268Z,3.47
2022-08-21T18:33:56.963Z,3.60
2022-08-21T18:36:27.408Z,3.63
2022-08-21T18:38:58.808Z,4.03
2022-08-21T18:41:35.691Z,3.67
2022-08-21T18:44:02.603Z,4.10
2022-08-21T18:46:30.104Z,4.10
2022-08-21T18:48:56.941Z,3.80
2022-08-21T18:51:24.060Z,3.73
2022-08-21T18:53:55.012Z,4.37
2022-08-21T18:56:23.013Z,3.90
2022-08-21T18:58:57.479Z,4.13
2022-08-21T19:01:25.758Z,4.10
2022-08-21T19:03:52.921Z,4.03
2022-08-21T19:06:19.770Z,3.93
2022-08-21T19:08:46.710Z,4.07
2022-08-21T19:11:13.741Z,4.47
2022-08-21T19:13:40.921Z,4.47
2022-08-21T19:16:09.684Z,4.27
2022-08-21T19:18:40.929Z,4.03
2022-08-21T19:21:08.159Z,4.73
2022-08-21T19:23:35.530Z,4.40
2022-08-21T19:26:06.277Z,4.17
2022-08-21T19:28:41.938Z,4.70
2022-08-21T19:31:23.588Z,4.60
2022-08-21T19:34:04.411Z,4.90
2022-08-21T19:36:32.568Z,4.70
2022-08-21T19:39:00.688Z,4.60
2022-08-21T19:41:32.359Z,4.97
2022-08-21T19:44:06.041Z,5.00
2022-08-21T19:46:36.889Z,4.93
2022-08-21T19:49:06.841Z,4.00
2022-08-21T19:51:35.536Z,5.03
2022-08-21T19:54:03.995Z,5.00
2022-08-21T19:56:34.215Z,4.90
2022-08-21T19:59:03.053Z,4.77
2022-08-21T20:01:33.179Z,4.83
2022-08-21T20:04:00.393Z,5.00
2022-08-21T20:06:27.681Z,4.73
2022-08-21T20:08:55.362Z,5.10
2022-08-21T20:14:25.349Z,4.73
2022-08-21T20:16:53.422Z,5.20
2022-08-21T20:19:22.158Z,5.20
2022-08-21T20:21:49.106Z,5.10
2022-08-21T20:24:16.635Z,4.87
2022-08-21T20:26:49.238Z,5.07
2022-08-21T20:29:24.463Z,4.83
2022-08-21T20:31:57.407Z,4.90
2022-08-21T20:34:25.518Z,5.33
2022-08-21T20:36:53.303Z,5.70
2022-08-21T20:39:23.818Z,4.93
2022-08-21T20:41:53.058Z,5.60
2022-08-21T20:44:20.613Z,5.00
2022-08-21T20:46:47.720Z,5.10
2022-08-21T20:49:21.868Z,5.07
2022-08-21T20:51:52.332Z,5.40
2022-08-21T20:54:36.936Z,5.27
2022-08-21T20:57:03.688Z,5.03
2022-08-21T20:59:33.489Z,5.10
2022-08-21T21:02:28.217Z,5.07
2022-08-21T21:05:19.173Z,5.33
2022-08-21T21:08:11.776Z,5.20
2022-08-21T21:10:49.549Z,5.10
2022-08-21T21:13:33.359Z,5.20
2022-08-21T21:16:51.306Z,5.17
2022-08-21T21:19:36.950Z,5.10
2022-08-21T21:22:34.175Z,4.90
2022-08-21T21:25:39.989Z,4.60
2022-08-21T21:28:36.159Z,5.03
2022-08-21T21:31:03.743Z,5.10
2022-08-21T21:33:30.953Z,5.27
2022-08-21T21:36:22.905Z,5.17
2022-08-21T21:39:05.268Z,4.53
2022-08-21T21:42:03.716Z,4.93
2022-08-21T21:44:47.104Z,5.33
2022-08-21T21:47:30.345Z,5.13
2022-08-21T21:50:18.769Z,4.63
2022-08-21T21:53:46.588Z,4.97
2022-08-21T21:56:33.427Z,5.30
2022-08-21T21:59:18.626Z,4.93
2022-08-21T22:02:00.731Z,4.83
2022-08-21T22:05:04.151Z,4.57
2022-08-21T22:07:45.279Z,4.47
2022-08-21T22:10:38.430Z,4.70
2022-08-21T22:13:38.476Z,4.77
2022-08-21T22:16:07.501Z,4.60
2022-08-21T22:18:47.394Z,4.50
2022-08-21T22:21:34.822Z,4.83
2022-08-21T22:24:15.629Z,4.70
2022-08-21T22:26:49.705Z,4.80
2022-08-21T22:29:22.779Z,4.77
2022-08-21T22:32:07.369Z,4.37
2022-08-21T22:34:34.669Z,4.23
2022-08-21T22:37:07.777Z,4.83
2022-08-21T22:39:43.151Z,5.00
2022-08-21T22:42:23.711Z,4.67
2022-08-21T22:44:59.309Z,4.57
2022-08-21T22:47:48.629Z,4.50
2022-08-21T22:50:29.349Z,4.50
2022-08-21T22:53:07.188Z,4.30
2022-08-21T22:55:52.612Z,4.40
2022-08-21T22:58:25.690Z,4.57
2022-08-21T23:01:02.200Z,4.07
2022-08-21T23:03:49.233Z,3.80
2022-08-21T23:06:46.567Z,4.30
2022-08-21T23:09:28.778Z,4.77
2022-08-21T23:12:01.471Z,5.23
2022-08-21T23:14:48.646Z,5.07
2022-08-21T23:17:43.054Z,4.90
2022-08-21T23:20:35.436Z,5.13
2022-08-21T23:23:20.129Z,4.87
2022-08-21T23:29:24.880Z,4.23
2022-08-21T23:32:02.690Z,4.93
2022-08-21T23:34:45.364Z,5.30
2022-08-21T23:37:51.583Z,4.90
2022-08-21T23:40:50.693Z,5.00
2022-08-21T23:44:22.086Z,5.00
2022-08-21T23:47:29.993Z,5.23
2022-08-21T23:50:14.110Z,5.50
2022-08-21T23:52:57.966Z,5.10
2022-08-21T23:55:55.433Z,5.40
2022-08-21T23:58:49.986Z,4.97
